Time;durP1;ratioP1;P1;durP2;ratioP2;P2;SDS_P1;SDS_P2;PMS_P1;PMS_P2;Temp;Humidity;BMP_temperature;BMP_pressure;BME280_temperature;BME280_humidity;BME280_pressure;Samples;Min_cycle;Max_cycle;Signal;HPM_P1;HPM_P2
2021/06/04 00:00:36;;;;;;;7.80;3.55;;;;;;;14.16;64.24;100055.17;1655776;84;21011;-70
2021/06/04 00:03:15;;;;;;;5.97;3.17;;;;;;;14.14;64.45;100054.63;1681825;85;21079;-71
2021/06/04 00:05:47;;;;;;;8.43;3.30;;;;;;;14.12;64.29;100060.95;1685841;85;21484;-71
2021/06/04 00:08:14;;;;;;;7.55;3.33;;;;;;;14.00;63.05;100052.28;1670194;85;21124;-70
2021/06/04 00:10:58;;;;;;;5.55;3.27;;;;;;;14.07;63.27;100061.53;1671490;86;21053;-70
2021/06/04 00:13:37;;;;;;;6.03;3.30;;;;;;;14.13;63.90;100063.97;1713921;81;21020;-70
2021/06/04 00:16:16;;;;;;;6.65;3.40;;;;;;;14.09;64.67;100057.42;1719717;82;20983;-70
2021/06/04 00:18:43;;;;;;;6.80;3.40;;;;;;;14.00;64.19;100055.02;1707310;82;21031;-70
2021/06/04 00:21:25;;;;;;;7.87;3.95;;;;;;;13.94;64.28;100052.07;1712172;82;21047;-70
2021/06/04 00:23:53;;;;;;;5.92;3.75;;;;;;;13.90;64.31;100059.22;1717970;82;21059;-69
2021/06/04 00:26:20;;;;;;;5.50;3.40;;;;;;;13.88;63.83;100058.70;1720711;83;20955;-70
2021/06/04 00:28:48;;;;;;;6.42;3.60;;;;;;;13.91;63.52;100054.02;1729775;81;21511;-70
2021/06/04 00:31:14;;;;;;;;;;;;;;;13.91;64.08;100048.00;1722074;82;21015;-70
2021/06/04 00:33:42;;;;;;;8.78;3.87;;;;;;;13.99;64.16;100049.30;1719649;82;20144;-70
2021/06/04 00:36:11;;;;;;;6.80;3.60;;;;;;;13.89;64.31;100051.55;1717304;82;21749;-70
2021/06/04 00:38:39;;;;;;;6.08;3.75;;;;;;;13.87;64.70;100052.95;1710837;83;21636;-70
2021/06/04 00:41:24;;;;;;;8.23;3.70;;;;;;;13.77;65.06;100045.64;1709908;82;21016;-70
2021/06/04 00:43:52;;;;;;;6.10;3.37;;;;;;;13.86;65.00;100050.76;1720942;82;21047;-70
2021/06/04 00:46:20;;;;;;;6.62;3.20;;;;;;;13.90;64.79;100055.93;1712780;82;21015;-70
2021/06/04 00:48:49;;;;;;;4.00;3.20;;;;;;;13.87;64.75;100051.58;1722293;81;21059;-69
2021/06/04 00:51:33;;;;;;;8.25;3.47;;;;;;;13.82;65.03;100051.61;1737770;82;21063;-70
2021/06/04 00:54:03;;;;;;;5.92;3.67;;;;;;;13.79;65.11;100053.00;1725344;82;21023;-70
2021/06/04 00:56:30;;;;;;;7.87;3.67;;;;;;;13.74;64.87;100053.06;1711617;82;20972;-70
2021/06/04 00:58:57;;;;;;;6.05;3.25;;;;;;;13.78;65.09;100058.78;1716367;82;21108;-70
2021/06/04 01:01:29;;;;;;;4.78;3.40;;;;;;;13.85;64.97;100046.38;1705916;82;21004;-70
2021/06/04 01:04:02;;;;;;;8.65;3.83;;;;;;;13.87;64.98;100048.84;1718453;82;21083;-70
2021/06/04 01:06:41;;;;;;;5.00;3.55;;;;;;;13.84;65.16;100050.24;1715506;82;21055;-69
2021/06/04 01:10:04;;;;;;;8.05;3.50;;;;;;;13.82;64.86;100044.77;1706640;82;21051;-69
2021/06/04 01:12:59;;;;;;;7.05;3.20;;;;;;;13.80;64.89;100051.09;1718872;82;21052;-70
2021/06/04 01:15:59;;;;;;;6.40;2.92;;;;;;;13.83;64.32;100046.41;1716844;83;21035;-70
2021/06/04 01:18:49;;;;;;;8.23;3.58;;;;;;;13.83;64.61;100051.88;1713111;82;21063;-70
2021/06/04 01:21:32;;;;;;;5.40;3.80;;;;;;;13.74;65.04;100046.77;1701518;82;21047;-68
2021/06/04 01:24:20;;;;;;;7.65;3.90;;;;;;;13.70;65.36;100054.72;1718331;82;21103;-69
2021/06/04 01:26:51;;;;;;;6.62;3.47;;;;;;;13.65;65.35;100053.38;1719922;82;21038;-69
2021/06/04 01:29:30;;;;;;;5.83;3.12;;;;;;;13.68;65.16;100054.17;1688698;83;21519;-70
2021/06/04 01:32:04;;;;;;;5.55;3.30;;;;;;;13.73;64.62;100047.86;1681526;83;21541;-70
2021/06/04 01:34:38;;;;;;;7.42;3.55;;;;;;;13.71;64.86;100054.97;1673942;83;21008;-70
2021/06/04 01:37:12;;;;;;;5.15;3.25;;;;;;;13.67;64.55;100054.48;1733501;82;21470;-70
2021/06/04 01:39:45;;;;;;;5.00;3.83;;;;;;;13.62;65.02;100054.50;1724862;82;21019;-70
2021/06/04 01:42:16;;;;;;;6.45;3.42;;;;;;;13.57;64.58;100056.70;1718949;82;21568;-69
2021/06/04 01:44:51;;;;;;;6.75;3.62;;;;;;;13.55;64.54;100051.27;1716138;83;20999;-70
2021/06/04 01:47:26;;;;;;;6.30;3.52;;;;;;;13.58;64.37;100058.89;1706285;83;21027;-69
2021/06/04 01:49:53;;;;;;;9.33;3.65;;;;;;;13.61;63.78;100052.85;1721448;82;20988;-69
2021/06/04 01:52:26;;;;;;;7.28;3.87;;;;;;;13.62;64.02;100055.86;1712724;82;21103;-69
2021/06/04 01:55:01;;;;;;;4.97;3.52;;;;;;;13.60;64.10;100060.81;1714808;83;21327;-69
2021/06/04 01:57:32;;;;;;;8.18;3.98;;;;;;;13.59;64.23;100058.63;1705596;83;21063;-69
2021/06/04 02:00:00;;;;;;;9.60;4.25;;;;;;;13.58;63.80;100058.89;1718075;82;20996;-69
2021/06/04 02:02:44;;;;;;;5.85;3.90;;;;;;;13.56;64.23;100054.27;1705502;84;21545;-71
2021/06/04 02:05:14;;;;;;;7.45;3.95;;;;;;;13.63;64.24;100060.24;1717281;82;21508;-70
2021/06/04 02:07:41;;;;;;;8.25;3.60;;;;;;;13.65;63.93;100058.03;1729613;82;21094;-69
2021/06/04 02:10:13;;;;;;;5.28;3.80;;;;;;;13.64;63.58;100062.67;1717069;82;21020;-69
2021/06/04 02:12:40;;;;;;;7.05;3.98;;;;;;;13.63;63.37;100062.44;1696433;82;21047;-69
2021/06/04 02:15:17;;;;;;;6.95;3.75;;;;;;;13.63;63.15;100062.44;1720775;82;21008;-70
2021/06/04 02:17:58;;;;;;;6.33;4.12;;;;;;;13.62;63.07;100059.97;1718730;82;21115;-69
2021/06/04 02:20:43;;;;;;;6.12;3.92;;;;;;;13.62;63.38;100069.55;1728748;82;21059;-69
2021/06/04 02:23:44;;;;;;;5.15;3.55;;;;;;;13.66;63.49;100070.06;1699326;82;21039;-69
2021/06/04 02:26:29;;;;;;;6.37;3.30;;;;;;;13.71;63.37;100070.02;1717181;82;21570;-69
2021/06/04 02:29:21;;;;;;;7.70;3.55;;;;;;;13.68;63.12;100067.03;1714745;81;21004;-69
2021/06/04 02:31:53;;;;;;;4.55;3.58;;;;;;;13.67;63.54;100068.98;1700904;83;20972;-69
2021/06/04 02:34:37;;;;;;;7.25;3.75;;;;;;;13.66;63.60;100072.80;1711356;83;21031;-69
2021/06/04 02:37:19;;;;;;;9.60;3.50;;;;;;;13.68;63.55;100077.42;1722161;82;20972;-70
2021/06/04 02:39:52;;;;;;;7.35;3.67;;;;;;;13.73;62.97;100073.30;1727699;82;20968;-69
2021/06/04 02:42:28;;;;;;;8.15;3.75;;;;;;;13.78;62.89;100078.72;1706143;83;21028;-69
2021/06/04 02:45:03;;;;;;;6.08;3.60;;;;;;;13.79;62.66;100080.91;1712963;82;20983;-69
2021/06/04 02:47:38;;;;;;;5.65;3.67;;;;;;;13.78;62.72;100070.52;1714563;83;21580;-69
2021/06/04 02:50:10;;;;;;;5.45;3.87;;;;;;;13.78;62.60;100070.52;1730446;82;20956;-70
2021/06/04 02:52:43;;;;;;;5.85;3.95;;;;;;;13.79;62.84;100076.27;1716526;82;21568;-70
2021/06/04 02:55:18;;;;;;;7.37;3.62;;;;;;;13.84;63.20;100072.68;1705875;82;20971;-69
2021/06/04 02:57:46;;;;;;;5.12;3.27;;;;;;;13.91;63.34;100068.52;1719982;82;21056;-69
2021/06/04 03:00:37;;;;;;;6.25;3.02;;;;;;;13.95;63.68;100070.95;1731205;82;21004;-69
2021/06/04 03:03:00;;;;;;;7.20;3.90;;;;;;;13.95;63.87;100074.23;1725645;81;21589;-69
2021/06/04 03:05:30;;;;;;;6.58;4.00;;;;;;;13.95;63.90;100070.14;1718837;83;21002;-69
2021/06/04 03:07:58;;;;;;;6.83;3.87;;;;;;;13.95;63.74;100074.23;1703081;83;21637;-69
2021/06/04 03:10:39;;;;;;;6.75;3.60;;;;;;;13.98;64.04;100074.21;1704915;83;21000;-69
2021/06/04 03:13:10;;;;;;;7.35;3.37;;;;;;;14.06;63.47;100079.91;1725134;82;21056;-70
2021/06/04 03:15:41;;;;;;;7.87;4.12;;;;;;;14.19;63.68;100079.23;1723295;82;21075;-69
2021/06/04 03:18:11;;;;;;;5.60;3.30;;;;;;;14.31;63.33;100074.18;1715789;83;21023;-70
2021/06/04 03:20:41;;;;;;;11.33;3.70;;;;;;;14.37;63.24;100078.56;1718392;82;21484;-69
2021/06/04 03:23:10;;;;;;;6.70;3.33;;;;;;;14.39;62.88;100076.88;1697795;83;21052;-69
2021/06/04 03:25:45;;;;;;;5.70;3.65;;;;;;;14.41;62.61;100071.41;1711666;83;20976;-69
2021/06/04 03:28:16;;;;;;;7.87;3.40;;;;;;;14.44;62.71;100065.89;1705564;82;21059;-69
2021/06/04 03:30:44;;;;;;;7.60;4.03;;;;;;;14.49;62.30;100073.25;1723500;82;20971;-69
2021/06/04 03:33:15;;;;;;;5.42;3.30;;;;;;;14.51;61.82;100068.28;1719506;82;21051;-70
2021/06/04 03:35:43;;;;;;;6.25;3.98;;;;;;;14.59;61.83;100076.70;1719179;82;20999;-69
2021/06/04 03:38:09;;;;;;;;;;;;;;;14.70;61.73;100075.46;1730933;81;21533;-69
2021/06/04 03:40:37;;;;;;;6.12;3.92;;;;;;;14.83;61.19;100080.27;1724185;82;20129;-70
2021/06/04 03:43:08;;;;;;;6.80;3.42;;;;;;;14.83;61.44;100080.82;1673534;83;21086;-71
2021/06/04 03:45:39;;;;;;;6.60;3.45;;;;;;;14.89;61.54;100071.42;1690093;84;20975;-68
2021/06/04 03:48:09;;;;;;;7.62;3.80;;;;;;;14.98;61.05;100075.17;1684586;85;21028;-69
2021/06/04 03:50:36;;;;;;;6.55;3.70;;;;;;;15.04;61.09;100078.66;1683245;85;20997;-70
2021/06/04 03:53:05;;;;;;;10.13;3.83;;;;;;;15.08;61.20;100073.67;1683117;83;21131;-69
2021/06/04 03:55:32;;;;;;;10.30;3.50;;;;;;;15.06;61.13;100071.76;1681926;85;20988;-70
2021/06/04 03:57:59;;;;;;;6.97;3.65;;;;;;;15.01;60.81;100060.87;1677025;85;21657;-70
2021/06/04 04:00:36;;;;;;;6.72;3.58;;;;;;;15.10;60.70;100078.30;1679771;85;21057;-69
2021/06/04 04:03:03;;;;;;;6.05;4.17;;;;;;;15.22;60.62;100076.52;1679992;85;21948;-69
2021/06/04 04:05:30;;;;;;;5.25;3.67;;;;;;;15.43;59.93;100072.38;1675625;85;21025;-69
2021/06/04 04:07:56;;;;;;;7.17;3.80;;;;;;;15.71;59.79;100073.38;1689184;83;21201;-69
2021/06/04 04:10:24;;;;;;;6.92;3.85;;;;;;;16.08;58.95;100067.05;1717540;83;20995;-69
2021/06/04 04:12:51;;;;;;;6.33;3.17;;;;;;;16.47;56.34;100066.64;1684560;84;21603;-70
2021/06/04 04:15:17;;;;;;;7.20;3.80;;;;;;;16.81;55.73;100060.23;1673117;85;21476;-69
2021/06/04 04:17:45;;;;;;;6.33;3.87;;;;;;;17.09;54.21;100066.55;1720180;83;21034;-69
2021/06/04 04:20:15;;;;;;;6.45;3.60;;;;;;;17.23;53.41;100065.97;1708182;84;21038;-69
2021/06/04 04:22:42;;;;;;;8.80;3.98;;;;;;;17.41;53.69;100061.72;1706060;83;21056;-69
2021/06/04 04:25:10;;;;;;;6.85;3.52;;;;;;;17.58;52.38;100057.52;1698115;83;21011;-69
2021/06/04 04:27:37;;;;;;;7.62;3.50;;;;;;;17.80;53.14;100067.20;1686317;84;21084;-71
2021/06/04 04:30:06;;;;;;;7.70;3.72;;;;;;;18.10;52.52;100067.03;1680041;83;21014;-70
2021/06/04 04:32:33;;;;;;;7.33;3.75;;;;;;;18.37;51.52;100061.37;1671503;83;21085;-69
2021/06/04 04:35:00;;;;;;;7.58;3.90;;;;;;;18.43;50.31;100062.03;1703161;83;21105;-69
2021/06/04 04:37:26;;;;;;;6.22;3.85;;;;;;;18.39;50.83;100066.80;1656511;84;21086;-69
2021/06/04 04:39:52;;;;;;;9.13;3.70;;;;;;;18.40;51.04;100069.82;1664876;85;21065;-69
2021/06/04 04:42:21;;;;;;;6.42;3.25;;;;;;;18.40;50.20;100067.06;1652992;85;21122;-70
2021/06/04 04:44:50;;;;;;;8.33;3.65;;;;;;;18.42;50.86;100060.44;1640391;86;21081;-69
2021/06/04 04:47:18;;;;;;;5.75;3.58;;;;;;;18.43;50.04;100062.03;1665692;85;21089;-69
2021/06/04 04:49:44;;;;;;;6.08;4.15;;;;;;;18.50;51.04;100062.40;1634856;88;21143;-69
2021/06/04 04:52:11;;;;;;;;;;;;;;;18.58;50.07;100049.27;1652667;85;21018;-71
2021/06/04 04:54:46;;;;;;;9.65;3.77;;;;;;;18.63;49.42;100060.17;1686127;85;20158;-69
2021/06/04 04:57:13;;;;;;;7.45;4.15;;;;;;;18.52;50.16;100059.62;1667931;85;21450;-69
2021/06/04 04:59:39;;;;;;;10.13;3.45;;;;;;;18.46;49.50;100075.21;1713716;83;21025;-70
2021/06/04 05:02:06;;;;;;;8.53;3.83;;;;;;;18.45;50.42;100067.50;1666215;84;21500;-70
2021/06/04 05:04:33;;;;;;;9.25;4.47;;;;;;;18.48;50.60;100066.87;1666431;86;21121;-70
2021/06/04 05:06:59;;;;;;;7.17;3.70;;;;;;;18.48;51.21;100068.80;1668375;83;21546;-70
2021/06/04 05:09:25;;;;;;;;;;;;;;;18.52;50.88;100073.97;1715049;83;21055;-70
2021/06/04 05:11:53;;;;;;;;;;;;;;;18.44;51.04;100073.31;1698719;84;20532;-68
2021/06/04 05:14:20;;;;;;;7.08;3.50;;;;;;;18.26;51.50;100077.35;1662129;86;20496;-70
2021/06/04 05:16:46;;;;;;;9.58;3.72;;;;;;;18.12;52.26;100079.36;1694112;85;21449;-69
2021/06/04 05:19:13;;;;;;;6.92;3.60;;;;;;;18.14;52.00;100085.36;1693051;83;21597;-70
2021/06/04 05:21:39;;;;;;;;;;;;;;;18.12;52.66;100077.98;1686104;85;21042;-71
2021/06/04 05:24:08;;;;;;;6.87;3.87;;;;;;;18.10;52.94;100082.19;1672238;83;20129;-69
2021/06/04 05:26:34;;;;;;;8.43;3.98;;;;;;;17.99;52.62;100086.31;1690934;85;21059;-69
2021/06/04 05:29:01;;;;;;;7.53;3.83;;;;;;;18.05;53.04;100085.05;1681820;83;21091;-71
2021/06/04 05:31:28;;;;;;;8.60;3.92;;;;;;;18.19;51.97;100085.25;1671143;85;21059;-73
2021/06/04 05:33:55;;;;;;;9.00;3.85;;;;;;;18.27;51.60;100091.95;1701949;84;21136;-70
2021/06/04 05:36:32;;;;;;;8.85;3.58;;;;;;;18.38;51.34;100092.77;1695667;84;21586;-71
2021/06/04 05:39:00;;;;;;;9.33;3.77;;;;;;;18.58;51.02;100086.48;1696114;84;21104;-71
2021/06/04 05:41:26;;;;;;;6.35;3.60;;;;;;;18.78;50.34;100087.30;1694999;84;21507;-71
2021/06/04 05:43:53;;;;;;;8.60;3.42;;;;;;;18.96;49.56;100098.67;1695962;84;21117;-72
2021/06/04 05:46:20;;;;;;;9.33;3.60;;;;;;;19.15;49.20;100088.20;1696092;84;21030;-70
2021/06/04 05:48:47;;;;;;;8.65;3.47;;;;;;;19.36;48.71;100087.85;1695934;84;21086;-71
2021/06/04 05:51:22;;;;;;;9.88;3.75;;;;;;;19.55;47.34;100087.61;1668245;86;21058;-73
2021/06/04 05:53:50;;;;;;;7.90;3.30;;;;;;;19.70;47.59;100094.58;1668049;86;21156;-72
2021/06/04 05:56:18;;;;;;;6.62;3.12;;;;;;;19.68;47.10;100091.34;1667950;86;21934;-72
2021/06/04 05:58:45;;;;;;;8.88;3.52;;;;;;;19.76;46.66;100089.98;1668094;86;21081;-72
2021/06/04 06:01:17;;;;;;;7.15;2.85;;;;;;;19.76;47.01;100085.02;1691901;84;21048;-71
2021/06/04 06:03:44;;;;;;;7.05;3.70;;;;;;;19.94;47.06;100097.70;1695905;84;21160;-72
2021/06/04 06:06:12;;;;;;;6.53;3.67;;;;;;;20.17;47.75;100096.38;1695724;84;21060;-71
2021/06/04 06:08:41;;;;;;;5.87;2.52;;;;;;;20.48;47.23;100092.05;1694691;84;21085;-72
2021/06/04 06:11:09;;;;;;;9.50;3.10;;;;;;;20.78;46.80;100086.85;1691065;85;20999;-72
2021/06/04 06:13:37;;;;;;;5.58;2.83;;;;;;;21.07;45.84;100094.39;1690634;85;21097;-71
2021/06/04 06:16:05;;;;;;;7.30;3.10;;;;;;;21.25;43.81;100083.50;1725631;83;21056;-72
2021/06/04 06:18:32;;;;;;;7.47;3.12;;;;;;;21.39;43.81;100079.10;1725418;83;21056;-72
2021/06/04 06:20:59;;;;;;;6.87;2.87;;;;;;;21.60;43.96;100081.33;1723468;83;21546;-72
2021/06/04 06:23:32;;;;;;;4.87;2.90;;;;;;;21.84;43.05;100079.27;1722906;83;21122;-73
2021/06/04 06:26:04;;;;;;;7.15;2.45;;;;;;;22.03;41.71;100081.02;1723127;83;21568;-71
2021/06/04 06:28:33;;;;;;;5.45;2.20;;;;;;;21.96;40.83;100075.78;1720914;83;21638;-71
2021/06/04 06:31:03;;;;;;;6.67;2.47;;;;;;;21.68;40.12;100082.42;1724902;82;21548;-72
2021/06/04 06:33:30;;;;;;;9.90;2.60;;;;;;;21.55;41.21;100086.23;1735009;82;21011;-71
2021/06/04 06:36:01;;;;;;;5.62;2.65;;;;;;;21.47;40.13;100082.97;1735012;82;20998;-70
2021/06/04 06:38:28;;;;;;;6.37;2.20;;;;;;;21.41;40.87;100079.56;1701086;83;21489;-71
2021/06/04 06:40:55;;;;;;;7.37;2.35;;;;;;;21.54;40.32;100077.11;1734163;82;20982;-70
2021/06/04 06:43:25;;;;;;;9.83;2.12;;;;;;;21.52;37.59;100068.34;1724997;82;21069;-71
2021/06/04 06:45:52;;;;;;;4.75;2.30;;;;;;;21.40;37.97;100073.00;1722252;83;21437;-70
2021/06/04 06:48:19;;;;;;;4.05;2.17;;;;;;;21.35;38.04;100080.91;1724491;83;21894;-70
2021/06/04 06:50:45;;;;;;;7.53;2.37;;;;;;;21.49;37.92;100077.32;1723718;82;21022;-70
2021/06/04 06:53:13;;;;;;;6.72;2.50;;;;;;;21.60;37.11;100073.58;1727612;82;21093;-70
2021/06/04 06:55:41;;;;;;;4.55;1.92;;;;;;;21.68;38.99;100075.48;1722945;83;21050;-72
2021/06/04 06:58:08;;;;;;;5.30;1.57;;;;;;;21.78;35.06;100077.85;1724089;83;21029;-71
2021/06/04 07:00:38;;;;;;;4.72;1.70;;;;;;;21.78;33.95;100071.74;1735963;82;21030;-72
2021/06/04 07:03:06;;;;;;;7.70;2.30;;;;;;;21.78;35.39;100073.70;1723319;83;21042;-71
2021/06/04 07:05:33;;;;;;;4.85;1.87;;;;;;;21.90;36.21;100072.92;1726940;82;21533;-71
2021/06/04 07:08:00;;;;;;;4.80;1.72;;;;;;;21.91;35.07;100072.63;1724510;83;21052;-72
2021/06/04 07:10:28;;;;;;;10.23;2.30;;;;;;;21.91;34.32;100075.41;1704178;82;21506;-71
2021/06/04 07:13:00;;;;;;;4.95;1.80;;;;;;;21.95;34.90;100064.45;1687488;84;21585;-72
2021/06/04 07:15:27;;;;;;;5.50;1.50;;;;;;;21.87;31.93;100066.68;1715562;82;21083;-72
2021/06/04 07:17:57;;;;;;;7.37;1.40;;;;;;;21.58;33.82;100068.37;1722160;82;21051;-72
2021/06/04 07:20:25;;;;;;;4.53;1.40;;;;;;;21.58;33.47;100066.98;1687220;84;21625;-72
2021/06/04 07:22:52;;;;;;;2.85;1.50;;;;;;;21.72;33.94;100063.38;1687752;85;21922;-74
2021/06/04 07:25:19;;;;;;;5.58;1.25;;;;;;;21.91;31.96;100069.05;1687586;84;21162;-73
2021/06/04 07:27:46;;;;;;;4.42;1.30;;;;;;;22.18;33.78;100066.51;1687854;84;21099;-72
2021/06/04 07:30:21;;;;;;;5.60;1.55;;;;;;;22.46;30.46;100061.16;1689727;83;21020;-72
2021/06/04 07:32:47;;;;;;;3.02;1.15;;;;;;;22.62;31.65;100056.59;1709098;83;21052;-72
2021/06/04 07:35:16;;;;;;;7.25;1.65;;;;;;;22.31;29.84;100066.80;1704146;82;21641;-73
2021/06/04 07:37:43;;;;;;;3.77;1.20;;;;;;;21.97;29.04;100061.56;1687889;85;21558;-72
2021/06/04 07:40:13;;;;;;;3.67;1.40;;;;;;;21.75;30.39;100072.39;1693962;83;21055;-72
2021/06/04 07:42:39;;;;;;;6.15;1.50;;;;;;;21.49;30.69;100070.40;1702852;83;21039;-72
2021/06/04 07:45:07;;;;;;;3.67;1.30;;;;;;;21.46;30.63;100060.56;1717886;83;21095;-72
2021/06/04 07:47:35;;;;;;;2.52;1.12;;;;;;;21.55;31.49;100062.12;1714959;83;21091;-71
2021/06/04 07:50:05;;;;;;;4.15;1.27;;;;;;;21.69;31.69;100055.73;1687558;84;21075;-72
2021/06/04 07:52:33;;;;;;;4.95;1.17;;;;;;;21.69;30.29;100061.28;1687751;85;21114;-71
2021/06/04 07:55:00;;;;;;;6.25;1.62;;;;;;;21.34;30.54;100051.59;1687556;85;21119;-73
2021/06/04 07:57:28;;;;;;;4.20;1.52;;;;;;;21.08;31.10;100055.86;1687667;84;21148;-73
2021/06/04 07:59:56;;;;;;;4.87;1.30;;;;;;;20.76;30.92;100049.60;1713414;83;21031;-73
2021/06/04 08:02:22;;;;;;;6.70;1.30;;;;;;;20.63;31.33;100051.98;1717725;83;21043;-71
2021/06/04 08:04:51;;;;;;;6.35;1.45;;;;;;;20.56;32.24;100059.98;1717731;83;21129;-72
2021/06/04 08:07:18;;;;;;;5.50;1.40;;;;;;;20.67;32.84;100044.66;1708702;83;21056;-73
2021/06/04 08:09:45;;;;;;;6.83;1.17;;;;;;;20.75;31.50;100059.04;1687527;84;21455;-73
2021/06/04 08:12:14;;;;;;;7.10;1.70;;;;;;;20.71;32.23;100068.57;1687489;85;21062;-73
2021/06/04 08:14:43;;;;;;;5.92;1.20;;;;;;;20.61;33.11;100062.02;1687906;84;21091;-72
2021/06/04 08:17:09;;;;;;;3.37;1.30;;;;;;;20.68;32.40;100052.64;1690209;83;21055;-71
2021/06/04 08:19:36;;;;;;;3.92;1.20;;;;;;;20.94;32.86;100049.74;1717762;82;21621;-72
2021/06/04 08:22:07;;;;;;;8.35;1.52;;;;;;;21.18;32.25;100050.00;1717612;83;21043;-72
2021/06/04 08:24:34;;;;;;;5.17;0.90;;;;;;;21.27;30.82;100033.31;1717831;83;21425;-72
2021/06/04 08:27:03;;;;;;;3.05;1.00;;;;;;;21.42;31.23;100040.23;1717326;82;21141;-71
2021/06/04 08:29:31;;;;;;;5.50;1.10;;;;;;;21.64;31.69;100051.80;1718026;82;21071;-72
2021/06/04 08:31:59;;;;;;;3.50;1.30;;;;;;;21.91;32.77;100045.48;1717861;82;21684;-73
2021/06/04 08:34:27;;;;;;;5.53;1.27;;;;;;;22.11;30.05;100041.30;1717720;82;21079;-71
2021/06/04 08:36:54;;;;;;;5.87;1.30;;;;;;;22.06;29.66;100053.19;1707053;83;21065;-72
2021/06/04 08:39:28;;;;;;;6.20;1.60;;;;;;;21.93;29.41;100058.45;1687926;83;21031;-73
2021/06/04 08:42:09;;;;;;;6.47;1.45;;;;;;;21.70;31.35;100052.40;1687592;84;21047;-72
2021/06/04 08:45:15;;;;;;;3.52;1.00;;;;;;;21.72;30.43;100047.31;1687696;84;21067;-71
2021/06/04 08:47:43;;;;;;;4.45;1.10;;;;;;;21.90;30.76;100050.76;1713045;84;21154;-70
2021/06/04 08:50:35;;;;;;;5.42;1.07;;;;;;;22.04;30.24;100035.49;1676269;85;21091;-72
2021/06/04 08:53:31;;;;;;;3.67;1.10;;;;;;;22.09;30.13;100040.84;1713287;84;21038;-72
2021/06/04 08:56:11;;;;;;;6.50;1.15;;;;;;;22.09;31.04;100040.84;1713972;83;21035;-74
2021/06/04 08:59:11;;;;;;;3.50;1.17;;;;;;;22.09;30.78;100038.07;1713391;83;21020;-72
2021/06/04 09:01:57;;;;;;;5.30;1.30;;;;;;;22.15;30.76;100039.47;1701098;84;21016;-73
2021/06/04 09:04:36;;;;;;;5.90;1.67;;;;;;;22.24;29.70;100032.46;1693301;83;21439;-72
2021/06/04 09:07:22;;;;;;;7.65;1.40;;;;;;;21.92;30.83;100052.09;1717856;82;21999;-72
2021/06/04 09:10:18;;;;;;;5.87;1.27;;;;;;;21.58;30.96;100040.66;1717984;82;21114;-72
2021/06/04 09:12:55;;;;;;;2.58;1.02;;;;;;;21.51;31.20;100040.96;1671223;85;21107;-71
2021/06/04 09:15:25;;;;;;;3.35;1.20;;;;;;;21.61;31.39;100036.44;1656953;85;21553;-72
2021/06/04 09:18:17;;;;;;;3.52;1.07;;;;;;;21.62;29.75;100032.48;1689760;83;21074;-70
2021/06/04 09:20:55;;;;;;;3.25;1.10;;;;;;;21.43;29.26;100026.05;1687647;84;22050;-72
2021/06/04 09:23:35;;;;;;;5.08;1.30;;;;;;;21.38;30.79;100034.55;1688268;83;21135;-71
2021/06/04 09:26:03;;;;;;;4.25;1.10;;;;;;;21.33;29.80;100031.39;1687908;85;21090;-71
2021/06/04 09:28:39;;;;;;;4.15;1.42;;;;;;;21.32;30.77;100038.67;1687522;84;21653;-72
2021/06/04 09:31:28;;;;;;;4.30;1.30;;;;;;;21.27;31.37;100030.55;1688020;84;21071;-72
2021/06/04 09:33:57;;;;;;;5.87;1.25;;;;;;;21.24;31.10;100036.19;1692166;83;21035;-71
2021/06/04 09:36:28;;;;;;;8.80;1.72;;;;;;;21.32;31.07;100028.41;1717755;83;21066;-71
2021/06/04 09:39:05;;;;;;;5.72;1.35;;;;;;;21.50;31.29;100013.05;1691219;83;21097;-70
2021/06/04 09:41:46;;;;;;;5.25;1.50;;;;;;;21.67;31.42;100026.77;1720350;83;21113;-71
2021/06/04 09:44:21;;;;;;;3.58;1.22;;;;;;;21.85;31.25;100026.85;1693757;82;21609;-73
2021/06/04 09:47:25;;;;;;;3.77;1.20;;;;;;;22.06;29.89;100029.05;1687694;85;21084;-71
2021/06/04 09:49:52;;;;;;;5.75;1.52;;;;;;;22.09;30.24;100017.27;1687609;84;21052;-71
2021/06/04 09:52:24;;;;;;;8.38;1.40;;;;;;;21.99;29.15;100022.44;1687396;85;21079;-71
2021/06/04 09:55:22;;;;;;;5.50;1.30;;;;;;;21.95;30.87;100022.88;1715605;83;21084;-71
2021/06/04 09:58:18;;;;;;;4.60;1.05;;;;;;;21.84;29.23;100016.91;1717246;82;21605;-71
2021/06/04 10:00:53;;;;;;;3.98;1.75;;;;;;;21.77;31.15;100013.87;1717138;83;21106;-73
2021/06/04 10:03:25;;;;;;;6.55;1.40;;;;;;;21.88;28.77;100014.27;1715785;83;21102;-70
2021/06/04 10:06:08;;;;;;;3.25;1.10;;;;;;;22.11;29.55;100003.05;1718161;82;21530;-71
2021/06/04 10:08:49;;;;;;;3.72;1.10;;;;;;;22.52;30.46;100000.73;1717631;82;21583;-71
2021/06/04 10:11:25;;;;;;;6.37;1.30;;;;;;;22.77;29.46;100006.58;1727723;83;21098;-72
2021/06/04 10:14:21;;;;;;;7.75;1.42;;;;;;;22.54;29.37;100010.90;1704640;83;21051;-71
2021/06/04 10:19:43;;;;;;;6.00;1.55;;;;;;;22.08;30.49;100012.06;1683057;84;21086;-71
2021/06/04 10:22:36;;;;;;;3.92;1.10;;;;;;;22.28;31.98;100000.13;1699944;83;20988;-71
2021/06/04 10:25:11;;;;;;;9.53;1.32;;;;;;;22.58;30.11;100001.55;1730712;83;21070;-72
2021/06/04 10:27:48;;;;;;;5.80;1.57;;;;;;;22.79;29.29;100011.19;1730720;82;21578;-70
2021/06/04 10:30:36;;;;;;;8.30;1.70;;;;;;;22.79;27.98;100000.09;1730823;83;21054;-71
2021/06/04 10:33:28;;;;;;;5.65;1.25;;;;;;;22.83;29.07;100005.19;1742623;81;21066;-70
2021/06/04 10:36:00;;;;;;;4.37;1.10;;;;;;;22.88;30.70;100002.19;1743453;82;21093;-71
2021/06/04 10:38:43;;;;;;;4.50;1.40;;;;;;;22.83;28.81;100003.80;1743665;81;21034;-72
2021/06/04 10:41:16;;;;;;;4.42;1.32;;;;;;;22.60;28.85;100009.55;1742440;82;21049;-71
2021/06/04 10:44:21;;;;;;;6.85;1.32;;;;;;;22.26;29.59;100007.95;1730482;83;21064;-70
2021/06/04 10:47:05;;;;;;;4.08;1.10;;;;;;;22.15;30.07;100007.58;1730872;83;21085;-73
2021/06/04 10:50:07;;;;;;;2.85;1.20;;;;;;;22.38;32.77;99993.32;1730359;82;21055;-71
2021/06/04 10:52:54;;;;;;;5.20;1.40;;;;;;;22.84;31.52;100005.42;1730554;83;21110;-72
2021/06/04 10:55:33;;;;;;;;;;;;;;;23.08;29.76;100000.43;1733475;83;21066;-72
2021/06/04 10:58:21;;;;;;;5.35;1.20;;;;;;;23.10;28.62;100007.24;1730538;82;20122;-71
2021/06/04 11:00:55;;;;;;;3.02;1.10;;;;;;;22.98;27.96;100004.50;1724991;83;21054;-71
2021/06/04 11:03:51;;;;;;;5.60;1.40;;;;;;;23.09;30.23;100005.65;1700138;83;21027;-71
2021/06/04 11:06:50;;;;;;;6.22;1.67;;;;;;;23.25;28.76;99992.66;1700066;84;21581;-71
2021/06/04 11:09:36;;;;;;;4.85;1.42;;;;;;;23.43;28.68;99988.25;1702528;83;21142;-70
2021/06/04 11:12:32;;;;;;;5.10;1.40;;;;;;;23.41;28.50;99997.49;1679227;85;21127;-73
2021/06/04 11:15:23;;;;;;;5.37;1.45;;;;;;;23.14;28.47;99992.09;1730363;82;21019;-72
2021/06/04 11:18:02;;;;;;;3.65;1.20;;;;;;;22.94;28.64;99985.52;1730721;83;22163;-71
2021/06/04 11:20:52;;;;;;;5.03;1.27;;;;;;;23.10;29.39;99991.97;1717639;83;21054;-71
2021/06/04 11:25:25;;;;;;;7.08;1.35;;;;;;;23.19;27.87;99992.67;1801406;79;23071;-71
2021/06/04 11:28:26;;;;;;;4.05;1.35;;;;;;;23.12;28.62;99989.67;1757879;80;21573;-74
2021/06/04 11:30:54;;;;;;;3.55;1.22;;;;;;;23.19;28.03;99986.30;1719752;83;21046;-72
2021/06/04 11:33:24;;;;;;;7.30;1.40;;;;;;;23.33;29.35;99997.04;1691266;83;21093;-72
2021/06/04 11:36:12;;;;;;;7.12;1.20;;;;;;;23.34;28.75;99996.70;1718229;83;21533;-72
2021/06/04 11:38:52;;;;;;;9.50;1.60;;;;;;;23.36;27.43;99987.42;1701165;84;21085;-72
2021/06/04 11:41:44;;;;;;;6.53;1.40;;;;;;;23.37;26.75;99984.07;1677350;85;21045;-72
2021/06/04 11:44:43;;;;;;;4.70;1.20;;;;;;;23.40;28.40;99980.59;1677010;85;21161;-71
2021/06/04 11:47:21;;;;;;;3.95;1.12;;;;;;;23.41;27.63;99981.67;1678982;84;21014;-73
2021/06/04 11:50:01;;;;;;;6.75;1.47;;;;;;;23.47;28.42;99976.09;1705364;84;21081;-72
2021/06/04 11:52:42;;;;;;;4.25;1.20;;;;;;;23.52;27.44;99982.80;1705251;84;21077;-72
2021/06/04 11:55:31;;;;;;;4.05;1.25;;;;;;;23.62;28.39;99992.60;1705177;84;21070;-72
2021/06/04 11:58:17;;;;;;;6.67;1.40;;;;;;;23.63;27.08;99977.55;1702310;84;21041;-72
2021/06/04 12:00:53;;;;;;;5.40;1.37;;;;;;;23.68;26.89;99978.10;1677767;84;21065;-71
2021/06/04 12:03:29;;;;;;;6.03;1.10;;;;;;;23.66;27.68;99976.27;1677369;85;21223;-72